createdAt,value
2022-10-31T00:01:19.997Z,17.85
2022-10-31T00:05:21.641Z,15.05
2022-10-31T00:09:23.353Z,13.30
2022-10-31T00:13:25.021Z,16.92
2022-10-31T00:17:26.747Z,18.30
2022-10-31T00:21:29.445Z,16.00
2022-10-31T00:25:36.121Z,12.00
2022-10-31T00:29:37.745Z,13.93
2022-10-31T00:33:40.671Z,17.12
2022-10-31T00:37:42.253Z,11.07
2022-10-31T00:41:43.850Z,17.00
2022-10-31T00:45:45.502Z,17.12
2022-10-31T00:49:47.110Z,14.82
2022-10-31T00:53:48.769Z,20.00
2022-10-31T00:57:50.491Z,10.05
2022-10-31T01:01:52.299Z,16.70
2022-10-31T01:06:12.456Z,11.98
2022-10-31T01:10:14.418Z,18.55
2022-10-31T01:14:16.073Z,15.60
2022-10-31T01:18:17.687Z,14.40
2022-10-31T01:22:19.308Z,15.20
2022-10-31T01:26:24.050Z,18.23
2022-10-31T01:30:25.617Z,15.07
2022-10-31T01:34:27.401Z,14.10
2022-10-31T01:38:29.023Z,16.20
2022-10-31T01:42:30.676Z,12.60
2022-10-31T01:46:37.597Z,14.00
2022-10-31T01:50:39.989Z,14.35
2022-10-31T01:54:46.557Z,16.55
2022-10-31T01:58:48.319Z,15.50
2022-10-31T02:02:50.927Z,16.27
2022-10-31T02:06:59.932Z,10.25
2022-10-31T02:11:02.461Z,12.75
2022-10-31T02:15:05.536Z,13.40
2022-10-31T02:19:10.137Z,15.70
2022-10-31T02:23:20.871Z,21.37
2022-10-31T02:27:40.577Z,13.82
2022-10-31T02:32:04.580Z,17.58
2022-10-31T02:36:28.483Z,17.00
2022-10-31T02:40:39.009Z,16.23
2022-10-31T02:44:49.411Z,17.83
2022-10-31T02:48:58.506Z,12.05
2022-10-31T02:53:00.171Z,15.25
2022-10-31T02:57:08.269Z,15.80
2022-10-31T03:01:23.541Z,18.23
2022-10-31T03:05:31.031Z,14.82
2022-10-31T03:09:35.351Z,18.83
2022-10-31T03:13:43.750Z,14.10
2022-10-31T03:18:05.278Z,16.75
2022-10-31T03:22:26.713Z,16.08
2022-10-31T03:26:29.509Z,19.40
2022-10-31T03:30:36.583Z,13.98
2022-10-31T03:34:40.864Z,15.40
2022-10-31T03:38:44.753Z,19.80
2022-10-31T03:42:53.781Z,14.35
2022-10-31T03:46:55.721Z,14.75
2022-10-31T03:51:13.809Z,14.70
2022-10-31T03:55:24.991Z,17.00
2022-10-31T03:59:40.386Z,14.13
2022-10-31T04:03:43.714Z,15.27
2022-10-31T04:07:48.525Z,15.73
2022-10-31T04:11:53.871Z,17.15
2022-10-31T04:15:56.742Z,15.85
2022-10-31T04:20:01.333Z,17.35
2022-10-31T04:24:03.076Z,16.45
2022-10-31T04:28:05.127Z,16.02
2022-10-31T04:32:06.972Z,15.95
2022-10-31T04:36:08.879Z,16.45
2022-10-31T04:40:11.170Z,15.15
2022-10-31T04:44:12.798Z,14.50
2022-10-31T04:48:14.703Z,15.50
2022-10-31T04:52:16.328Z,17.25
2022-10-31T04:56:17.988Z,18.15
2022-10-31T05:00:21.389Z,21.83
2022-10-31T05:04:23.154Z,19.52
2022-10-31T05:08:24.841Z,17.05
2022-10-31T05:12:26.442Z,18.67
2022-10-31T05:16:29.192Z,15.27
2022-10-31T05:20:31.508Z,19.00
2022-10-31T05:24:33.127Z,18.30
2022-10-31T05:28:34.731Z,18.90
2022-10-31T05:32:44.520Z,22.48
2022-10-31T05:36:46.193Z,16.75
2022-10-31T05:40:47.829Z,14.25
2022-10-31T05:44:49.444Z,17.60
2022-10-31T05:48:51.054Z,17.30
2022-10-31T05:53:01.618Z,18.98
2022-10-31T05:57:03.365Z,15.00
2022-10-31T06:01:05.201Z,16.17
2022-10-31T06:05:07.177Z,22.42
2022-10-31T06:09:08.833Z,19.83
2022-10-31T06:13:10.462Z,21.30
2022-10-31T06:17:12.104Z,18.37
2022-10-31T06:21:16.407Z,21.60
2022-10-31T06:25:20.584Z,71.07
2022-10-31T06:29:22.227Z,26.20
2022-10-31T06:33:23.903Z,19.50
2022-10-31T06:37:25.524Z,19.52
2022-10-31T06:41:27.157Z,17.70
2022-10-31T06:45:29.173Z,23.77
2022-10-31T06:49:30.841Z,20.25
2022-10-31T06:53:32.489Z,32.15
2022-10-31T06:57:34.181Z,19.12
2022-10-31T07:01:36.116Z,20.83
2022-10-31T07:05:38.204Z,21.08
2022-10-31T07:09:40.059Z,21.77
2022-10-31T07:13:41.904Z,16.75
2022-10-31T07:17:43.504Z,20.00
2022-10-31T07:21:45.129Z,27.00
2022-10-31T07:25:46.756Z,26.05
2022-10-31T07:29:48.459Z,25.77
2022-10-31T07:33:50.854Z,26.48
2022-10-31T07:37:52.994Z,18.65
2022-10-31T07:41:54.701Z,17.15
2022-10-31T07:45:56.332Z,21.50
2022-10-31T07:49:57.930Z,22.00
2022-10-31T07:53:59.627Z,22.98
2022-10-31T07:58:09.595Z,18.17
2022-10-31T08:02:11.204Z,17.37
2022-10-31T08:06:12.876Z,24.55
2022-10-31T08:10:14.486Z,23.02
2022-10-31T08:14:16.188Z,26.98
2022-10-31T08:18:18.036Z,25.12
2022-10-31T08:22:19.668Z,20.17
2022-10-31T08:26:21.284Z,24.48
2022-10-31T08:30:26.484Z,25.50
2022-10-31T08:34:28.146Z,27.27
2022-10-31T08:38:29.796Z,36.35
2022-10-31T08:42:31.416Z,59.05
2022-10-31T08:46:33.507Z,32.40
2022-10-31T08:50:36.577Z,22.00
2022-10-31T08:54:38.233Z,28.10
2022-10-31T08:58:40.466Z,19.35
2022-10-31T09:02:42.270Z,27.62
2022-10-31T09:07:07.870Z,25.85
2022-10-31T09:11:07.358Z,28.10
2022-10-31T09:15:09.864Z,26.30
2022-10-31T09:19:11.751Z,33.35
2022-10-31T09:23:20.089Z,21.77
2022-10-31T09:27:21.709Z,28.42
2022-10-31T09:31:23.322Z,28.65
2022-10-31T09:35:25.926Z,26.30
2022-10-31T09:39:27.665Z,28.45
2022-10-31T09:43:47.902Z,24.42
2022-10-31T09:48:10.881Z,28.42
2022-10-31T09:52:25.516Z,29.37
2022-10-31T09:56:28.587Z,33.45
2022-10-31T10:00:32.906Z,34.35
2022-10-31T10:04:45.428Z,32.88
2022-10-31T10:08:47.132Z,33.67
2022-10-31T10:13:22.846Z,28.23
2022-10-31T10:17:52.328Z,30.02
2022-10-31T10:22:37.341Z,34.85
2022-10-31T10:27:06.693Z,27.70
2022-10-31T10:31:33.885Z,33.22
2022-10-31T10:35:37.451Z,23.62
2022-10-31T10:39:41.794Z,27.83
2022-10-31T10:43:43.813Z,23.52
2022-10-31T10:47:52.725Z,27.62
2022-10-31T10:52:39.787Z,27.92
2022-10-31T10:56:42.452Z,29.45
2022-10-31T11:00:50.390Z,29.23
2022-10-31T11:04:55.180Z,31.67
2022-10-31T11:08:56.811Z,24.60
2022-10-31T11:13:06.497Z,22.35
2022-10-31T11:17:16.851Z,25.77
2022-10-31T11:21:26.394Z,28.05
2022-10-31T11:25:28.341Z,23.85
2022-10-31T11:29:29.941Z,17.30
2022-10-31T11:34:01.397Z,16.40
2022-10-31T11:38:06.486Z,16.20
2022-10-31T11:42:09.136Z,14.85
2022-10-31T11:46:15.946Z,15.63
2022-10-31T11:50:26.785Z,14.15
2022-10-31T11:54:33.179Z,15.07
2022-10-31T11:58:34.828Z,15.00
2022-10-31T12:02:36.505Z,15.90
2022-10-31T12:06:41.232Z,12.48
2022-10-31T12:11:07.744Z,11.88
2022-10-31T12:15:15.322Z,15.68
2022-10-31T12:19:51.348Z,16.62
2022-10-31T12:24:22.489Z,11.40
2022-10-31T12:29:04.379Z,19.48
2022-10-31T12:33:22.200Z,15.43
2022-10-31T12:37:42.835Z,13.57
2022-10-31T12:41:47.585Z,15.15
2022-10-31T12:46:00.385Z,11.40
2022-10-31T12:50:23.441Z,13.62
2022-10-31T12:54:32.526Z,14.93
2022-10-31T12:58:38.190Z,10.30
2022-10-31T13:02:49.506Z,15.85
2022-10-31T13:07:08.698Z,12.25
2022-10-31T13:11:24.015Z,11.00
2022-10-31T13:15:28.734Z,11.85
2022-10-31T13:19:38.869Z,14.35
2022-10-31T13:23:56.322Z,12.93
2022-10-31T13:32:06.356Z,10.25
2022-10-31T13:36:22.208Z,14.00
2022-10-31T13:40:29.713Z,8.73
2022-10-31T13:44:38.650Z,12.68
2022-10-31T13:48:43.047Z,11.05
2022-10-31T13:52:44.766Z,13.30
2022-10-31T13:56:50.966Z,9.27
2022-10-31T14:01:11.484Z,7.55
2022-10-31T14:05:29.956Z,15.13
2022-10-31T14:09:42.375Z,10.27
2022-10-31T14:13:46.842Z,13.07
2022-10-31T14:17:58.391Z,9.93
2022-10-31T14:22:00.310Z,8.68
2022-10-31T14:26:29.555Z,10.35
2022-10-31T14:30:31.729Z,10.60
2022-10-31T14:34:54.210Z,10.25
2022-10-31T14:39:05.614Z,16.60
2022-10-31T14:43:39.086Z,11.80
2022-10-31T14:47:57.361Z,15.52
2022-10-31T14:51:59.997Z,15.40
2022-10-31T14:56:06.652Z,13.77
2022-10-31T15:04:25.506Z,15.35
2022-10-31T15:08:40.833Z,17.10
2022-10-31T15:12:42.496Z,11.80
2022-10-31T15:16:44.524Z,9.65
2022-10-31T15:20:47.197Z,11.35
2022-10-31T15:24:50.108Z,16.92
2022-10-31T15:29:16.607Z,13.73
2022-10-31T15:33:27.237Z,11.93
2022-10-31T15:37:29.638Z,13.65
2022-10-31T15:41:34.258Z,12.35
2022-10-31T15:45:36.396Z,10.10
2022-10-31T15:49:42.022Z,12.15
2022-10-31T15:53:50.640Z,9.00
2022-10-31T15:57:59.431Z,13.07
2022-10-31T16:02:03.925Z,10.35
2022-10-31T16:06:06.513Z,12.98
2022-10-31T16:10:24.812Z,10.85
2022-10-31T16:14:34.168Z,15.60
2022-10-31T16:18:38.445Z,11.05
2022-10-31T16:22:40.591Z,11.30
2022-10-31T16:26:42.582Z,10.05
2022-10-31T16:30:48.441Z,11.98
2022-10-31T16:35:18.601Z,9.13
2022-10-31T16:39:20.369Z,9.18
2022-10-31T16:43:23.487Z,10.30
2022-10-31T16:47:27.685Z,9.75
2022-10-31T16:51:30.357Z,8.80
2022-10-31T16:55:35.719Z,11.73
2022-10-31T16:59:37.522Z,8.68
2022-10-31T17:03:39.351Z,8.85
2022-10-31T17:07:41.854Z,12.05
2022-10-31T17:11:49.422Z,11.25
2022-10-31T17:16:00.034Z,11.82
2022-10-31T17:20:01.661Z,9.63
2022-10-31T17:24:03.521Z,8.88
2022-10-31T17:28:05.754Z,8.38
2022-10-31T17:32:07.365Z,9.75
2022-10-31T17:36:09.032Z,9.77
2022-10-31T17:40:12.274Z,9.57
2022-10-31T17:44:13.885Z,6.68
2022-10-31T17:48:15.516Z,5.35
2022-10-31T17:52:17.186Z,11.05
2022-10-31T17:56:18.778Z,11.48
2022-10-31T18:00:22.462Z,7.68
2022-10-31T18:04:24.360Z,9.38
2022-10-31T18:08:31.227Z,8.15
2022-10-31T18:12:35.862Z,11.75
2022-10-31T18:16:37.759Z,12.55
2022-10-31T18:20:40.604Z,7.18
2022-10-31T18:24:42.364Z,11.85
2022-10-31T18:28:44.026Z,20.15
2022-10-31T18:32:48.518Z,20.40
2022-10-31T18:36:50.834Z,24.58
2022-10-31T18:40:52.475Z,15.18
2022-10-31T18:44:54.069Z,10.10
2022-10-31T18:48:55.689Z,12.27
2022-10-31T18:52:57.349Z,21.87
2022-10-31T18:56:59.005Z,16.27
2022-10-31T19:01:05.362Z,27.33
2022-10-31T19:05:07.304Z,21.40
2022-10-31T19:09:09.561Z,12.25
2022-10-31T19:13:11.220Z,13.77
2022-10-31T19:17:12.822Z,18.70
2022-10-31T19:21:17.424Z,11.75
2022-10-31T19:25:19.264Z,13.50
2022-10-31T19:29:20.860Z,10.20
2022-10-31T19:33:22.563Z,15.02
2022-10-31T19:37:24.340Z,11.05
2022-10-31T19:41:27.589Z,20.45
2022-10-31T19:45:29.278Z,13.18
2022-10-31T19:49:31.018Z,11.93
2022-10-31T19:53:33.204Z,16.20
2022-10-31T19:58:00.412Z,16.33
2022-10-31T20:01:58.541Z,16.02
2022-10-31T20:06:03.640Z,10.00
2022-10-31T20:10:05.792Z,9.43
2022-10-31T20:14:08.696Z,6.25
2022-10-31T20:18:10.368Z,7.43
2022-10-31T20:22:12.323Z,8.73
2022-10-31T20:26:16.992Z,7.07
2022-10-31T20:30:18.649Z,5.85
2022-10-31T20:34:20.243Z,9.55
2022-10-31T20:38:21.857Z,10.07
2022-10-31T20:42:23.782Z,13.82
2022-10-31T20:46:26.972Z,8.60
2022-10-31T20:50:28.886Z,9.95
2022-10-31T20:54:30.524Z,7.65
2022-10-31T20:58:32.406Z,6.90
2022-10-31T21:02:34.738Z,10.80
2022-10-31T21:06:36.472Z,8.90
2022-10-31T21:10:39.251Z,7.75
2022-10-31T21:14:40.903Z,11.52
2022-10-31T21:18:44.706Z,6.87
2022-10-31T21:22:46.357Z,5.97
2022-10-31T21:26:51.038Z,8.48
2022-10-31T21:30:52.671Z,10.13
2022-10-31T21:34:54.292Z,11.95
2022-10-31T21:38:56.259Z,8.00
2022-10-31T21:42:58.430Z,10.05
2022-10-31T21:47:00.204Z,7.32
2022-10-31T21:51:05.235Z,9.32
2022-10-31T21:55:07.273Z,6.47
2022-10-31T21:59:10.070Z,12.90
2022-10-31T22:03:11.662Z,10.32
2022-10-31T22:07:13.263Z,12.95
2022-10-31T22:11:16.991Z,10.85
2022-10-31T22:15:22.618Z,7.03
2022-10-31T22:19:24.217Z,8.10
2022-10-31T22:23:25.825Z,10.98
2022-10-31T22:27:27.458Z,11.55
2022-10-31T22:31:30.638Z,7.00
2022-10-31T22:35:34.139Z,6.82
2022-10-31T22:39:35.761Z,9.48
2022-10-31T22:43:37.865Z,14.45
2022-10-31T22:51:50.214Z,7.62
2022-10-31T22:55:51.805Z,10.00
2022-10-31T22:59:53.515Z,6.55
2022-10-31T23:03:55.775Z,8.75
2022-10-31T23:07:57.482Z,7.78
2022-10-31T23:12:19.099Z,9.43
2022-10-31T23:16:20.711Z,7.75
2022-10-31T23:20:22.475Z,10.52
2022-10-31T23:24:25.491Z,12.88
2022-10-31T23:28:27.096Z,13.32
2022-10-31T23:32:28.698Z,6.12
2022-10-31T23:36:30.316Z,11.82
2022-10-31T23:40:31.968Z,7.75
2022-10-31T23:44:33.583Z,10.10
2022-10-31T23:48:35.369Z,11.43
2022-10-31T23:52:37.019Z,8.45
2022-10-31T23:56:38.671Z,10.60
